sensor_id;sensor_type;location;lat;lon;timestamp;temperature;humidity
43810;DHT22;29440;48.208;11.162;2023-02-24T00:01:56;6.10;99.90
43810;DHT22;29440;48.208;11.162;2023-02-24T00:04:27;6.10;99.90
43810;DHT22;29440;48.208;11.162;2023-02-24T00:06:53;6.10;99.90
43810;DHT22;29440;48.208;11.162;2023-02-24T00:09:21;6.10;99.90
43810;DHT22;29440;48.208;11.162;2023-02-24T00:14:18;6.10;99.90
43810;DHT22;29440;48.208;11.162;2023-02-24T00:16:44;6.10;99.90
43810;DHT22;29440;48.208;11.162;2023-02-24T00:19:12;6.20;99.90
43810;DHT22;29440;48.208;11.162;2023-02-24T00:21:39;6.20;99.90
43810;DHT22;29440;48.208;11.162;2023-02-24T00:24:05;6.20;99.90
43810;DHT22;29440;48.208;11.162;2023-02-24T00:26:31;6.10;99.90
43810;DHT22;29440;48.208;11.162;2023-02-24T00:28:58;6.10;99.90
43810;DHT22;29440;48.208;11.162;2023-02-24T00:31:25;6.10;99.90
43810;DHT22;29440;48.208;11.162;2023-02-24T00:33:54;6.10;99.90
43810;DHT22;29440;48.208;11.162;2023-02-24T00:36:22;6.10;99.90
43810;DHT22;29440;48.208;11.162;2023-02-24T00:38:50;6.10;99.90
43810;DHT22;29440;48.208;11.162;2023-02-24T00:41:18;6.10;99.90
43810;DHT22;29440;48.208;11.162;2023-02-24T00:43:47;6.10;99.90
43810;DHT22;29440;48.208;11.162;2023-02-24T00:46:17;6.10;99.90
43810;DHT22;29440;48.208;11.162;2023-02-24T00:48:44;6.10;99.90
43810;DHT22;29440;48.208;11.162;2023-02-24T00:51:14;6.10;99.90
43810;DHT22;29440;48.208;11.162;2023-02-24T00:53:41;6.10;99.90
43810;DHT22;29440;48.208;11.162;2023-02-24T00:56:09;6.10;99.90
43810;DHT22;29440;48.208;11.162;2023-02-24T00:58:42;6.10;99.90
43810;DHT22;29440;48.208;11.162;2023-02-24T01:01:20;6.10;99.90
43810;DHT22;29440;48.208;11.162;2023-02-24T01:03:47;6.10;99.90
43810;DHT22;29440;48.208;11.162;2023-02-24T01:06:17;6.00;99.90
43810;DHT22;29440;48.208;11.162;2023-02-24T01:08:51;5.90;99.90
43810;DHT22;29440;48.208;11.162;2023-02-24T01:11:20;5.80;99.90
43810;DHT22;29440;48.208;11.162;2023-02-24T01:14:23;5.80;99.90
43810;DHT22;29440;48.208;11.162;2023-02-24T01:16:49;5.70;99.90
43810;DHT22;29440;48.208;11.162;2023-02-24T01:19:19;5.70;99.90
43810;DHT22;29440;48.208;11.162;2023-02-24T01:21:45;5.70;99.90
43810;DHT22;29440;48.208;11.162;2023-02-24T01:24:12;5.50;99.90
43810;DHT22;29440;48.208;11.162;2023-02-24T01:26:40;5.50;99.90
43810;DHT22;29440;48.208;11.162;2023-02-24T01:29:06;5.40;99.90
43810;DHT22;29440;48.208;11.162;2023-02-24T01:31:35;5.40;99.90
43810;DHT22;29440;48.208;11.162;2023-02-24T01:34:01;5.30;99.90
43810;DHT22;29440;48.208;11.162;2023-02-24T01:36:31;5.30;99.90
43810;DHT22;29440;48.208;11.162;2023-02-24T01:38:58;5.20;99.90
43810;DHT22;29440;48.208;11.162;2023-02-24T01:41:24;5.20;99.90
43810;DHT22;29440;48.208;11.162;2023-02-24T01:46:57;5.10;99.90
43810;DHT22;29440;48.208;11.162;2023-02-24T01:49:32;5.10;99.90
43810;DHT22;29440;48.208;11.162;2023-02-24T01:52:18;5.10;99.90
43810;DHT22;29440;48.208;11.162;2023-02-24T01:57:37;5.00;99.90
43810;DHT22;29440;48.208;11.162;2023-02-24T02:00:07;5.00;99.90
43810;DHT22;29440;48.208;11.162;2023-02-24T02:02:45;5.00;99.90
43810;DHT22;29440;48.208;11.162;2023-02-24T02:05:12;4.90;99.90
43810;DHT22;29440;48.208;11.162;2023-02-24T02:07:39;4.90;99.90
43810;DHT22;29440;48.208;11.162;2023-02-24T02:10:06;4.90;99.90
43810;DHT22;29440;48.208;11.162;2023-02-24T02:12:37;4.90;99.90
43810;DHT22;29440;48.208;11.162;2023-02-24T02:15:13;4.90;99.90
43810;DHT22;29440;48.208;11.162;2023-02-24T02:23:04;4.90;99.90
43810;DHT22;29440;48.208;11.162;2023-02-24T02:31:21;4.80;99.90
43810;DHT22;29440;48.208;11.162;2023-02-24T02:37:00;4.70;99.90
43810;DHT22;29440;48.208;11.162;2023-02-24T02:39:50;4.70;99.90
43810;DHT22;29440;48.208;11.162;2023-02-24T02:42:29;4.70;99.90
43810;DHT22;29440;48.208;11.162;2023-02-24T02:45:14;4.60;99.90
43810;DHT22;29440;48.208;11.162;2023-02-24T02:47:58;4.60;99.90
43810;DHT22;29440;48.208;11.162;2023-02-24T02:50:38;4.60;99.90
43810;DHT22;29440;48.208;11.162;2023-02-24T02:53:29;4.60;99.90
43810;DHT22;29440;48.208;11.162;2023-02-24T02:56:18;4.60;99.90
43810;DHT22;29440;48.208;11.162;2023-02-24T02:58:50;4.50;99.90
43810;DHT22;29440;48.208;11.162;2023-02-24T03:01:22;4.50;99.90
43810;DHT22;29440;48.208;11.162;2023-02-24T03:03:55;4.50;99.90
43810;DHT22;29440;48.208;11.162;2023-02-24T03:06:31;4.50;99.90
43810;DHT22;29440;48.208;11.162;2023-02-24T03:09:02;4.50;99.90
43810;DHT22;29440;48.208;11.162;2023-02-24T03:11:40;4.50;99.90
43810;DHT22;29440;48.208;11.162;2023-02-24T03:14:09;4.50;99.90
43810;DHT22;29440;48.208;11.162;2023-02-24T03:16:40;4.50;99.90
43810;DHT22;29440;48.208;11.162;2023-02-24T03:19:09;4.50;99.90
43810;DHT22;29440;48.208;11.162;2023-02-24T03:21:36;4.40;99.90
43810;DHT22;29440;48.208;11.162;2023-02-24T03:24:04;4.40;99.90
43810;DHT22;29440;48.208;11.162;2023-02-24T03:29:13;4.30;99.90
43810;DHT22;29440;48.208;11.162;2023-02-24T03:31:56;4.20;99.90
43810;DHT22;29440;48.208;11.162;2023-02-24T03:34:36;4.20;99.90
43810;DHT22;29440;48.208;11.162;2023-02-24T03:37:04;4.20;99.90
43810;DHT22;29440;48.208;11.162;2023-02-24T03:39:30;4.10;99.90
43810;DHT22;29440;48.208;11.162;2023-02-24T03:42:06;4.10;99.90
43810;DHT22;29440;48.208;11.162;2023-02-24T03:44:33;4.10;99.90
43810;DHT22;29440;48.208;11.162;2023-02-24T03:47:00;4.10;99.90
43810;DHT22;29440;48.208;11.162;2023-02-24T03:49:26;4.10;99.90
43810;DHT22;29440;48.208;11.162;2023-02-24T04:00:39;4.10;99.90
43810;DHT22;29440;48.208;11.162;2023-02-24T04:08:23;3.90;99.90
43810;DHT22;29440;48.208;11.162;2023-02-24T04:11:08;4.00;99.90
43810;DHT22;29440;48.208;11.162;2023-02-24T04:13:46;4.00;99.90
43810;DHT22;29440;48.208;11.162;2023-02-24T04:19:20;4.00;99.90
43810;DHT22;29440;48.208;11.162;2023-02-24T04:21:49;4.00;99.90
43810;DHT22;29440;48.208;11.162;2023-02-24T04:24:17;4.00;99.90
43810;DHT22;29440;48.208;11.162;2023-02-24T04:26:46;4.00;99.90
43810;DHT22;29440;48.208;11.162;2023-02-24T04:29:21;4.00;99.90
43810;DHT22;29440;48.208;11.162;2023-02-24T04:31:59;4.00;99.90
43810;DHT22;29440;48.208;11.162;2023-02-24T04:34:26;4.00;99.90
43810;DHT22;29440;48.208;11.162;2023-02-24T04:36:57;4.00;99.90
43810;DHT22;29440;48.208;11.162;2023-02-24T04:39:24;4.00;99.90
43810;DHT22;29440;48.208;11.162;2023-02-24T04:41:50;4.10;99.90
43810;DHT22;29440;48.208;11.162;2023-02-24T04:44:17;4.00;99.90
43810;DHT22;29440;48.208;11.162;2023-02-24T04:46:44;4.10;99.90
43810;DHT22;29440;48.208;11.162;2023-02-24T04:49:10;4.20;99.90
43810;DHT22;29440;48.208;11.162;2023-02-24T04:51:36;4.10;99.90
43810;DHT22;29440;48.208;11.162;2023-02-24T04:54:08;4.10;99.90
43810;DHT22;29440;48.208;11.162;2023-02-24T04:56:37;4.10;99.90
43810;DHT22;29440;48.208;11.162;2023-02-24T04:59:05;4.10;99.90
43810;DHT22;29440;48.208;11.162;2023-02-24T05:01:31;4.00;99.90
43810;DHT22;29440;48.208;11.162;2023-02-24T05:03:57;4.00;99.90
43810;DHT22;29440;48.208;11.162;2023-02-24T05:06:24;4.00;99.90
43810;DHT22;29440;48.208;11.162;2023-02-24T05:08:50;3.90;99.90
43810;DHT22;29440;48.208;11.162;2023-02-24T05:11:16;3.90;99.90
43810;DHT22;29440;48.208;11.162;2023-02-24T05:13:45;3.90;99.90
43810;DHT22;29440;48.208;11.162;2023-02-24T05:16:13;3.90;99.90
43810;DHT22;29440;48.208;11.162;2023-02-24T05:18:39;3.90;99.90
43810;DHT22;29440;48.208;11.162;2023-02-24T05:21:07;3.90;99.90
43810;DHT22;29440;48.208;11.162;2023-02-24T05:23:52;3.90;99.90
43810;DHT22;29440;48.208;11.162;2023-02-24T05:26:19;3.90;99.90
43810;DHT22;29440;48.208;11.162;2023-02-24T05:28:47;3.90;99.90
43810;DHT22;29440;48.208;11.162;2023-02-24T05:31:21;3.90;99.90
43810;DHT22;29440;48.208;11.162;2023-02-24T05:33:50;3.90;99.90
43810;DHT22;29440;48.208;11.162;2023-02-24T05:36:19;3.90;99.90
43810;DHT22;29440;48.208;11.162;2023-02-24T05:38:47;4.00;99.90
43810;DHT22;29440;48.208;11.162;2023-02-24T05:41:16;4.00;99.90
43810;DHT22;29440;48.208;11.162;2023-02-24T05:43:47;4.00;99.90
43810;DHT22;29440;48.208;11.162;2023-02-24T05:46:24;4.00;99.90
43810;DHT22;29440;48.208;11.162;2023-02-24T05:48:55;4.00;99.90
43810;DHT22;29440;48.208;11.162;2023-02-24T05:51:24;4.00;99.90
43810;DHT22;29440;48.208;11.162;2023-02-24T05:53:53;4.00;99.90
43810;DHT22;29440;48.208;11.162;2023-02-24T05:56:23;4.00;99.90
43810;DHT22;29440;48.208;11.162;2023-02-24T05:58:49;3.90;99.90
43810;DHT22;29440;48.208;11.162;2023-02-24T06:01:37;3.90;99.90
43810;DHT22;29440;48.208;11.162;2023-02-24T06:04:06;3.90;99.90
43810;DHT22;29440;48.208;11.162;2023-02-24T06:06:37;3.80;99.90
43810;DHT22;29440;48.208;11.162;2023-02-24T06:09:05;3.80;99.90
43810;DHT22;29440;48.208;11.162;2023-02-24T06:11:32;3.90;99.90
43810;DHT22;29440;48.208;11.162;2023-02-24T06:13:58;3.70;99.90
43810;DHT22;29440;48.208;11.162;2023-02-24T06:16:24;3.70;99.90
43810;DHT22;29440;48.208;11.162;2023-02-24T06:18:50;3.70;99.90
43810;DHT22;29440;48.208;11.162;2023-02-24T06:21:17;3.70;99.90
43810;DHT22;29440;48.208;11.162;2023-02-24T06:23:42;3.70;99.90
43810;DHT22;29440;48.208;11.162;2023-02-24T06:26:09;3.70;99.90
43810;DHT22;29440;48.208;11.162;2023-02-24T06:28:40;3.70;99.90
43810;DHT22;29440;48.208;11.162;2023-02-24T06:31:09;3.70;99.90
43810;DHT22;29440;48.208;11.162;2023-02-24T06:33:37;3.70;99.90
43810;DHT22;29440;48.208;11.162;2023-02-24T06:36:03;3.70;99.90
43810;DHT22;29440;48.208;11.162;2023-02-24T06:38:30;3.70;99.90
43810;DHT22;29440;48.208;11.162;2023-02-24T06:40:57;3.70;99.90
43810;DHT22;29440;48.208;11.162;2023-02-24T06:43:23;3.80;99.90
43810;DHT22;29440;48.208;11.162;2023-02-24T06:45:48;3.80;99.90
43810;DHT22;29440;48.208;11.162;2023-02-24T06:48:14;3.80;99.90
43810;DHT22;29440;48.208;11.162;2023-02-24T06:50:40;3.80;99.90
43810;DHT22;29440;48.208;11.162;2023-02-24T06:53:06;3.90;99.90
43810;DHT22;29440;48.208;11.162;2023-02-24T06:55:42;3.90;99.90
43810;DHT22;29440;48.208;11.162;2023-02-24T06:58:17;4.00;99.90
43810;DHT22;29440;48.208;11.162;2023-02-24T07:00:42;4.10;99.90
43810;DHT22;29440;48.208;11.162;2023-02-24T07:03:22;4.10;99.90
43810;DHT22;29440;48.208;11.162;2023-02-24T07:05:51;4.20;99.90
43810;DHT22;29440;48.208;11.162;2023-02-24T07:08:36;4.30;99.90
43810;DHT22;29440;48.208;11.162;2023-02-24T07:11:02;4.40;99.90
43810;DHT22;29440;48.208;11.162;2023-02-24T07:13:31;4.40;99.90
43810;DHT22;29440;48.208;11.162;2023-02-24T07:15:59;4.50;99.90
43810;DHT22;29440;48.208;11.162;2023-02-24T07:18:34;4.60;99.90
43810;DHT22;29440;48.208;11.162;2023-02-24T07:21:02;4.60;99.90
43810;DHT22;29440;48.208;11.162;2023-02-24T07:23:39;4.70;99.90
43810;DHT22;29440;48.208;11.162;2023-02-24T07:26:14;4.70;99.90
43810;DHT22;29440;48.208;11.162;2023-02-24T07:28:42;4.80;99.90
43810;DHT22;29440;48.208;11.162;2023-02-24T07:31:09;4.80;99.90
43810;DHT22;29440;48.208;11.162;2023-02-24T07:33:36;5.00;99.90
43810;DHT22;29440;48.208;11.162;2023-02-24T07:36:04;5.00;99.90
43810;DHT22;29440;48.208;11.162;2023-02-24T07:38:37;5.00;99.90
43810;DHT22;29440;48.208;11.162;2023-02-24T07:41:04;5.10;99.90
43810;DHT22;29440;48.208;11.162;2023-02-24T07:43:34;5.20;99.90
43810;DHT22;29440;48.208;11.162;2023-02-24T07:46:10;5.20;99.90
43810;DHT22;29440;48.208;11.162;2023-02-24T07:48:37;5.30;99.90
43810;DHT22;29440;48.208;11.162;2023-02-24T07:51:14;5.30;99.90
43810;DHT22;29440;48.208;11.162;2023-02-24T07:53:40;5.30;99.90
43810;DHT22;29440;48.208;11.162;2023-02-24T07:56:10;5.40;99.90
43810;DHT22;29440;48.208;11.162;2023-02-24T07:58:45;5.50;99.90
43810;DHT22;29440;48.208;11.162;2023-02-24T08:01:14;5.50;99.90
43810;DHT22;29440;48.208;11.162;2023-02-24T08:03:59;5.60;99.90
43810;DHT22;29440;48.208;11.162;2023-02-24T08:06:36;5.70;99.90
43810;DHT22;29440;48.208;11.162;2023-02-24T08:09:08;5.80;99.90
43810;DHT22;29440;48.208;11.162;2023-02-24T08:11:52;5.90;99.90
43810;DHT22;29440;48.208;11.162;2023-02-24T08:16:53;6.10;99.90
43810;DHT22;29440;48.208;11.162;2023-02-24T08:19:25;6.20;99.90
43810;DHT22;29440;48.208;11.162;2023-02-24T08:22:00;6.30;99.90
43810;DHT22;29440;48.208;11.162;2023-02-24T08:24:49;6.30;99.90
43810;DHT22;29440;48.208;11.162;2023-02-24T08:27:16;6.40;99.90
43810;DHT22;29440;48.208;11.162;2023-02-24T08:29:49;6.50;99.90
43810;DHT22;29440;48.208;11.162;2023-02-24T08:35:28;6.60;99.90
43810;DHT22;29440;48.208;11.162;2023-02-24T08:38:02;6.80;99.90
43810;DHT22;29440;48.208;11.162;2023-02-24T08:40:34;6.80;99.90
43810;DHT22;29440;48.208;11.162;2023-02-24T08:45:41;7.00;99.90
43810;DHT22;29440;48.208;11.162;2023-02-24T08:48:11;7.10;99.90
43810;DHT22;29440;48.208;11.162;2023-02-24T08:50:57;7.20;99.90
43810;DHT22;29440;48.208;11.162;2023-02-24T08:53:24;7.30;99.90
43810;DHT22;29440;48.208;11.162;2023-02-24T08:55:59;7.40;99.90
43810;DHT22;29440;48.208;11.162;2023-02-24T08:58:34;7.50;99.90
43810;DHT22;29440;48.208;11.162;2023-02-24T09:01:00;7.60;99.90
43810;DHT22;29440;48.208;11.162;2023-02-24T09:03:28;7.80;99.90
43810;DHT22;29440;48.208;11.162;2023-02-24T09:08:30;8.30;99.90
43810;DHT22;29440;48.208;11.162;2023-02-24T09:11:03;8.50;99.90
43810;DHT22;29440;48.208;11.162;2023-02-24T09:13:35;8.80;99.90
43810;DHT22;29440;48.208;11.162;2023-02-24T09:16:02;9.10;99.90
43810;DHT22;29440;48.208;11.162;2023-02-24T09:18:29;9.40;99.90
43810;DHT22;29440;48.208;11.162;2023-02-24T09:21:06;9.70;99.90
43810;DHT22;29440;48.208;11.162;2023-02-24T09:23:51;10.20;99.90
43810;DHT22;29440;48.208;11.162;2023-02-24T09:26:16;10.60;99.90
43810;DHT22;29440;48.208;11.162;2023-02-24T09:28:44;11.00;99.90
43810;DHT22;29440;48.208;11.162;2023-02-24T09:31:14;11.30;99.90
43810;DHT22;29440;48.208;11.162;2023-02-24T09:33:42;11.50;99.90
43810;DHT22;29440;48.208;11.162;2023-02-24T09:36:17;11.90;99.90
43810;DHT22;29440;48.208;11.162;2023-02-24T09:38:54;12.40;99.90
43810;DHT22;29440;48.208;11.162;2023-02-24T09:41:44;12.80;99.90
43810;DHT22;29440;48.208;11.162;2023-02-24T09:47:21;13.00;99.90
43810;DHT22;29440;48.208;11.162;2023-02-24T09:52:46;13.00;99.90
43810;DHT22;29440;48.208;11.162;2023-02-24T10:01:17;12.90;99.90
43810;DHT22;29440;48.208;11.162;2023-02-24T10:07:11;12.80;99.90
43810;DHT22;29440;48.208;11.162;2023-02-24T10:09:45;12.80;99.90
43810;DHT22;29440;48.208;11.162;2023-02-24T10:15:08;12.90;99.90
43810;DHT22;29440;48.208;11.162;2023-02-24T10:17:53;12.80;99.90
43810;DHT22;29440;48.208;11.162;2023-02-24T10:20:23;12.90;99.90
43810;DHT22;29440;48.208;11.162;2023-02-24T10:28:54;12.70;99.90
43810;DHT22;29440;48.208;11.162;2023-02-24T10:31:39;12.60;99.90
43810;DHT22;29440;48.208;11.162;2023-02-24T10:34:15;12.50;99.90
43810;DHT22;29440;48.208;11.162;2023-02-24T10:36:51;12.50;99.90
43810;DHT22;29440;48.208;11.162;2023-02-24T10:39:19;12.30;99.90
43810;DHT22;29440;48.208;11.162;2023-02-24T10:41:57;12.20;99.90
43810;DHT22;29440;48.208;11.162;2023-02-24T10:44:28;12.20;99.90
43810;DHT22;29440;48.208;11.162;2023-02-24T10:47:06;12.20;99.90
43810;DHT22;29440;48.208;11.162;2023-02-24T10:49:46;12.20;99.90
43810;DHT22;29440;48.208;11.162;2023-02-24T10:52:31;12.10;99.90
43810;DHT22;29440;48.208;11.162;2023-02-24T10:55:41;12.10;99.90
43810;DHT22;29440;48.208;11.162;2023-02-24T11:00:53;12.10;99.90
43810;DHT22;29440;48.208;11.162;2023-02-24T11:03:45;12.20;99.90
43810;DHT22;29440;48.208;11.162;2023-02-24T11:06:29;12.10;99.90
43810;DHT22;29440;48.208;11.162;2023-02-24T11:09:19;12.10;99.90
43810;DHT22;29440;48.208;11.162;2023-02-24T11:12:10;12.10;99.90
43810;DHT22;29440;48.208;11.162;2023-02-24T11:15:05;12.20;99.90
43810;DHT22;29440;48.208;11.162;2023-02-24T11:17:55;12.20;99.90
43810;DHT22;29440;48.208;11.162;2023-02-24T11:22:57;12.30;99.90
43810;DHT22;29440;48.208;11.162;2023-02-24T11:25:33;12.30;99.90
43810;DHT22;29440;48.208;11.162;2023-02-24T11:28:01;12.30;99.90
43810;DHT22;29440;48.208;11.162;2023-02-24T11:30:44;12.30;99.90
43810;DHT22;29440;48.208;11.162;2023-02-24T11:41:22;12.20;99.90
43810;DHT22;29440;48.208;11.162;2023-02-24T11:44:30;12.10;99.90
43810;DHT22;29440;48.208;11.162;2023-02-24T11:47:03;12.00;99.90
43810;DHT22;29440;48.208;11.162;2023-02-24T11:49:52;11.90;99.90
43810;DHT22;29440;48.208;11.162;2023-02-24T11:52:25;11.80;99.90
43810;DHT22;29440;48.208;11.162;2023-02-24T11:54:55;11.70;99.90
43810;DHT22;29440;48.208;11.162;2023-02-24T11:57:29;11.60;99.90
43810;DHT22;29440;48.208;11.162;2023-02-24T12:00:17;11.50;99.90
43810;DHT22;29440;48.208;11.162;2023-02-24T12:05:38;11.30;99.90
43810;DHT22;29440;48.208;11.162;2023-02-24T12:10:57;11.20;99.90
43810;DHT22;29440;48.208;11.162;2023-02-24T12:13:50;11.20;99.90
43810;DHT22;29440;48.208;11.162;2023-02-24T12:16:21;11.10;99.90
43810;DHT22;29440;48.208;11.162;2023-02-24T12:19:19;11.10;99.90
43810;DHT22;29440;48.208;11.162;2023-02-24T12:21:50;11.10;99.90
43810;DHT22;29440;48.208;11.162;2023-02-24T12:24:17;11.10;99.90
43810;DHT22;29440;48.208;11.162;2023-02-24T12:27:03;11.10;99.90
43810;DHT22;29440;48.208;11.162;2023-02-24T12:32:21;11.10;99.90
43810;DHT22;29440;48.208;11.162;2023-02-24T12:45:21;10.80;99.90
43810;DHT22;29440;48.208;11.162;2023-02-24T12:51:55;10.70;99.90
43810;DHT22;29440;48.208;11.162;2023-02-24T12:54:05;10.70;99.90
43810;DHT22;29440;48.208;11.162;2023-02-24T12:56:44;10.70;99.90
43810;DHT22;29440;48.208;11.162;2023-02-24T12:59:14;10.70;99.90
43810;DHT22;29440;48.208;11.162;2023-02-24T13:01:50;10.60;99.90
43810;DHT22;29440;48.208;11.162;2023-02-24T13:07:17;10.60;99.90
43810;DHT22;29440;48.208;11.162;2023-02-24T13:10:10;10.50;99.90
43810;DHT22;29440;48.208;11.162;2023-02-24T13:15:26;10.50;99.90
43810;DHT22;29440;48.208;11.162;2023-02-24T13:17:55;10.50;99.90
43810;DHT22;29440;48.208;11.162;2023-02-24T13:22:53;10.40;99.90
43810;DHT22;29440;48.208;11.162;2023-02-24T13:25:21;10.40;99.90
43810;DHT22;29440;48.208;11.162;2023-02-24T13:28:22;10.40;99.90
43810;DHT22;29440;48.208;11.162;2023-02-24T13:31:00;10.40;99.90
43810;DHT22;29440;48.208;11.162;2023-02-24T13:33:38;10.40;99.90
43810;DHT22;29440;48.208;11.162;2023-02-24T13:36:17;10.40;99.90
43810;DHT22;29440;48.208;11.162;2023-02-24T13:39:04;10.40;99.90
43810;DHT22;29440;48.208;11.162;2023-02-24T13:46:22;10.40;99.90
43810;DHT22;29440;48.208;11.162;2023-02-24T13:52:54;10.40;99.90
43810;DHT22;29440;48.208;11.162;2023-02-24T14:02:38;10.40;99.90
43810;DHT22;29440;48.208;11.162;2023-02-24T14:05:21;10.50;99.90
43810;DHT22;29440;48.208;11.162;2023-02-24T14:07:49;10.40;99.90
43810;DHT22;29440;48.208;11.162;2023-02-24T14:10:16;10.40;99.90
43810;DHT22;29440;48.208;11.162;2023-02-24T14:12:44;10.40;99.90
43810;DHT22;29440;48.208;11.162;2023-02-24T14:15:23;10.40;99.90
43810;DHT22;29440;48.208;11.162;2023-02-24T14:18:03;10.40;99.90
43810;DHT22;29440;48.208;11.162;2023-02-24T14:20:34;10.40;99.90
43810;DHT22;29440;48.208;11.162;2023-02-24T14:23:01;10.40;99.90
43810;DHT22;29440;48.208;11.162;2023-02-24T14:25:32;10.40;99.90
43810;DHT22;29440;48.208;11.162;2023-02-24T14:27:59;10.40;99.90
43810;DHT22;29440;48.208;11.162;2023-02-24T14:30:33;10.40;99.90
43810;DHT22;29440;48.208;11.162;2023-02-24T14:33:00;10.40;99.90
43810;DHT22;29440;48.208;11.162;2023-02-24T14:35:38;10.40;99.90
43810;DHT22;29440;48.208;11.162;2023-02-24T14:38:06;10.40;99.90
43810;DHT22;29440;48.208;11.162;2023-02-24T14:40:33;10.30;99.90
43810;DHT22;29440;48.208;11.162;2023-02-24T14:42:59;10.30;99.90
43810;DHT22;29440;48.208;11.162;2023-02-24T14:45:27;10.30;99.90
43810;DHT22;29440;48.208;11.162;2023-02-24T14:47:54;10.30;99.90
43810;DHT22;29440;48.208;11.162;2023-02-24T14:50:29;10.30;99.90
43810;DHT22;29440;48.208;11.162;2023-02-24T14:53:02;10.20;99.90
43810;DHT22;29440;48.208;11.162;2023-02-24T14:55:39;10.30;99.90
43810;DHT22;29440;48.208;11.162;2023-02-24T15:01:02;10.10;99.90
43810;DHT22;29440;48.208;11.162;2023-02-24T15:03:36;10.10;99.90
43810;DHT22;29440;48.208;11.162;2023-02-24T15:06:07;10.00;99.90
43810;DHT22;29440;48.208;11.162;2023-02-24T15:08:47;10.00;99.90
43810;DHT22;29440;48.208;11.162;2023-02-24T15:13:54;9.90;99.90
43810;DHT22;29440;48.208;11.162;2023-02-24T15:16:31;9.90;99.90
43810;DHT22;29440;48.208;11.162;2023-02-24T15:18:59;9.90;99.90
43810;DHT22;29440;48.208;11.162;2023-02-24T15:21:33;9.90;99.90
43810;DHT22;29440;48.208;11.162;2023-02-24T15:24:16;9.80;99.90
43810;DHT22;29440;48.208;11.162;2023-02-24T15:26:49;9.80;99.90
43810;DHT22;29440;48.208;11.162;2023-02-24T15:29:22;9.80;99.90
43810;DHT22;29440;48.208;11.162;2023-02-24T15:31:50;9.80;99.90
43810;DHT22;29440;48.208;11.162;2023-02-24T15:34:18;9.70;99.90
43810;DHT22;29440;48.208;11.162;2023-02-24T15:36:46;9.70;99.90
43810;DHT22;29440;48.208;11.162;2023-02-24T15:39:21;9.70;99.90
43810;DHT22;29440;48.208;11.162;2023-02-24T15:41:49;9.60;99.90
43810;DHT22;29440;48.208;11.162;2023-02-24T15:44:25;9.60;99.90
43810;DHT22;29440;48.208;11.162;2023-02-24T15:46:52;9.60;99.90
43810;DHT22;29440;48.208;11.162;2023-02-24T15:49:18;9.60;99.90
43810;DHT22;29440;48.208;11.162;2023-02-24T15:51:45;9.50;99.90
43810;DHT22;29440;48.208;11.162;2023-02-24T15:54:23;9.60;99.90
43810;DHT22;29440;48.208;11.162;2023-02-24T15:56:51;9.50;99.90
43810;DHT22;29440;48.208;11.162;2023-02-24T15:59:18;9.60;99.90
43810;DHT22;29440;48.208;11.162;2023-02-24T16:01:45;9.50;99.90
43810;DHT22;29440;48.208;11.162;2023-02-24T16:04:11;9.40;99.90
43810;DHT22;29440;48.208;11.162;2023-02-24T16:06:38;9.40;99.90
43810;DHT22;29440;48.208;11.162;2023-02-24T16:09:13;9.40;99.90
43810;DHT22;29440;48.208;11.162;2023-02-24T16:11:41;9.30;99.90
43810;DHT22;29440;48.208;11.162;2023-02-24T16:14:14;9.30;99.90
43810;DHT22;29440;48.208;11.162;2023-02-24T16:16:47;9.20;99.90
43810;DHT22;29440;48.208;11.162;2023-02-24T16:19:13;9.20;99.90
43810;DHT22;29440;48.208;11.162;2023-02-24T16:21:39;9.10;99.90
43810;DHT22;29440;48.208;11.162;2023-02-24T16:24:05;9.20;99.90
43810;DHT22;29440;48.208;11.162;2023-02-24T16:26:35;9.10;99.90
43810;DHT22;29440;48.208;11.162;2023-02-24T16:29:02;9.10;99.90
43810;DHT22;29440;48.208;11.162;2023-02-24T16:31:28;9.10;99.90
43810;DHT22;29440;48.208;11.162;2023-02-24T16:33:53;9.00;99.90
43810;DHT22;29440;48.208;11.162;2023-02-24T16:36:23;9.00;99.90
43810;DHT22;29440;48.208;11.162;2023-02-24T16:38:49;9.00;99.90
43810;DHT22;29440;48.208;11.162;2023-02-24T16:41:16;8.90;99.90
43810;DHT22;29440;48.208;11.162;2023-02-24T16:43:42;8.90;99.90
43810;DHT22;29440;48.208;11.162;2023-02-24T16:46:13;8.90;99.90
43810;DHT22;29440;48.208;11.162;2023-02-24T16:48:40;8.90;99.90
43810;DHT22;29440;48.208;11.162;2023-02-24T16:51:10;8.90;99.90
43810;DHT22;29440;48.208;11.162;2023-02-24T16:53:36;8.90;99.90
43810;DHT22;29440;48.208;11.162;2023-02-24T16:56:02;8.80;99.90
43810;DHT22;29440;48.208;11.162;2023-02-24T16:58:29;8.80;99.90
43810;DHT22;29440;48.208;11.162;2023-02-24T17:00:57;8.80;99.90
43810;DHT22;29440;48.208;11.162;2023-02-24T17:05:54;8.80;99.90
43810;DHT22;29440;48.208;11.162;2023-02-24T17:08:20;8.90;99.90
43810;DHT22;29440;48.208;11.162;2023-02-24T17:10:46;8.80;99.90
43810;DHT22;29440;48.208;11.162;2023-02-24T17:13:14;8.80;99.90
43810;DHT22;29440;48.208;11.162;2023-02-24T17:15:41;8.80;99.90
43810;DHT22;29440;48.208;11.162;2023-02-24T17:18:08;8.80;99.90
43810;DHT22;29440;48.208;11.162;2023-02-24T17:20:35;8.80;99.90
43810;DHT22;29440;48.208;11.162;2023-02-24T17:23:01;8.70;99.90
43810;DHT22;29440;48.208;11.162;2023-02-24T17:25:28;8.70;99.90
43810;DHT22;29440;48.208;11.162;2023-02-24T17:27:55;8.70;99.90
43810;DHT22;29440;48.208;11.162;2023-02-24T17:30:26;8.70;99.90
43810;DHT22;29440;48.208;11.162;2023-02-24T17:32:52;8.70;99.90
43810;DHT22;29440;48.208;11.162;2023-02-24T17:35:18;8.70;99.90
43810;DHT22;29440;48.208;11.162;2023-02-24T17:37:43;8.70;99.90
43810;DHT22;29440;48.208;11.162;2023-02-24T17:40:10;8.60;99.90
43810;DHT22;29440;48.208;11.162;2023-02-24T17:42:36;8.60;99.90
43810;DHT22;29440;48.208;11.162;2023-02-24T17:45:03;8.60;99.90
43810;DHT22;29440;48.208;11.162;2023-02-24T17:47:30;8.60;99.90
43810;DHT22;29440;48.208;11.162;2023-02-24T17:49:56;8.50;99.90
43810;DHT22;29440;48.208;11.162;2023-02-24T17:52:23;8.70;99.90
43810;DHT22;29440;48.208;11.162;2023-02-24T17:54:48;8.50;99.90
43810;DHT22;29440;48.208;11.162;2023-02-24T17:57:14;8.50;99.90
43810;DHT22;29440;48.208;11.162;2023-02-24T17:59:43;8.50;99.90
43810;DHT22;29440;48.208;11.162;2023-02-24T18:02:15;8.50;99.90
43810;DHT22;29440;48.208;11.162;2023-02-24T18:04:41;8.50;99.90
43810;DHT22;29440;48.208;11.162;2023-02-24T18:07:08;8.40;99.90
43810;DHT22;29440;48.208;11.162;2023-02-24T18:09:34;8.40;99.90
43810;DHT22;29440;48.208;11.162;2023-02-24T18:12:00;8.50;99.90
43810;DHT22;29440;48.208;11.162;2023-02-24T18:14:27;8.30;99.90
43810;DHT22;29440;48.208;11.162;2023-02-24T18:16:52;8.30;99.90
43810;DHT22;29440;48.208;11.162;2023-02-24T18:19:18;8.30;99.90
43810;DHT22;29440;48.208;11.162;2023-02-24T18:21:45;8.30;99.90